sensor_id;sensor_type;location;lat;lon;timestamp;pressure;altitude;pressure_sealevel;temperature;humidity
3654;BME280;70277;54.302;10.064;2023-11-22T00:00:15;102607.84;;;3.81;74.51
3654;BME280;70277;54.302;10.064;2023-11-22T00:02:42;102615.03;;;3.81;74.71
3654;BME280;70277;54.302;10.064;2023-11-22T00:05:09;102619.03;;;3.77;74.94
3654;BME280;70277;54.302;10.064;2023-11-22T00:07:37;102622.41;;;3.79;74.84
3654;BME280;70277;54.302;10.064;2023-11-22T00:10:05;102623.91;;;3.81;74.29
3654;BME280;70277;54.302;10.064;2023-11-22T00:12:31;102627.72;;;4.05;74.37
3654;BME280;70277;54.302;10.064;2023-11-22T00:15:04;102619.72;;;3.79;74.34
3654;BME280;70277;54.302;10.064;2023-11-22T00:17:34;102621.66;;;3.69;75.03
3654;BME280;70277;54.302;10.064;2023-11-22T00:20:01;102625.97;;;3.61;74.61
3654;BME280;70277;54.302;10.064;2023-11-22T00:22:32;102629.94;;;3.57;74.55
3654;BME280;70277;54.302;10.064;2023-11-22T00:24:59;102640.38;;;3.42;75.66
3654;BME280;70277;54.302;10.064;2023-11-22T00:27:28;102639.66;;;3.58;75.47
3654;BME280;70277;54.302;10.064;2023-11-22T00:29:56;102646.00;;;3.57;75.11
3654;BME280;70277;54.302;10.064;2023-11-22T00:32:23;102652.81;;;3.52;74.96
3654;BME280;70277;54.302;10.064;2023-11-22T00:34:50;102654.88;;;3.58;74.40
3654;BME280;70277;54.302;10.064;2023-11-22T00:37:16;102648.31;;;3.52;74.51
3654;BME280;70277;54.302;10.064;2023-11-22T00:39:43;102658.75;;;3.37;74.61
3654;BME280;70277;54.302;10.064;2023-11-22T00:42:09;102664.03;;;3.29;74.92
3654;BME280;70277;54.302;10.064;2023-11-22T00:44:36;102667.97;;;3.25;74.61
3654;BME280;70277;54.302;10.064;2023-11-22T00:47:03;102672.41;;;3.16;74.33
3654;BME280;70277;54.302;10.064;2023-11-22T00:49:29;102649.03;;;3.18;74.95
3654;BME280;70277;54.302;10.064;2023-11-22T00:51:56;102665.56;;;3.14;74.84
3654;BME280;70277;54.302;10.064;2023-11-22T00:54:26;102660.19;;;3.14;74.74
3654;BME280;70277;54.302;10.064;2023-11-22T00:56:53;102662.72;;;3.15;74.80
3654;BME280;70277;54.302;10.064;2023-11-22T00:59:19;102645.06;;;3.05;74.35
3654;BME280;70277;54.302;10.064;2023-11-22T01:01:46;102647.59;;;3.06;74.54
3654;BME280;70277;54.302;10.064;2023-11-22T01:04:12;102637.28;;;2.93;75.43
3654;BME280;70277;54.302;10.064;2023-11-22T01:06:39;102638.47;;;2.81;76.37
3654;BME280;70277;54.302;10.064;2023-11-22T01:09:07;102636.19;;;2.86;76.73
3654;BME280;70277;54.302;10.064;2023-11-22T01:11:35;102647.19;;;2.83;76.57
3654;BME280;70277;54.302;10.064;2023-11-22T01:14:01;102639.75;;;2.77;76.29
3654;BME280;70277;54.302;10.064;2023-11-22T01:16:28;102647.19;;;2.83;75.55
3654;BME280;70277;54.302;10.064;2023-11-22T01:18:55;102643.84;;;2.81;75.83
3654;BME280;70277;54.302;10.064;2023-11-22T01:21:21;102642.22;;;2.88;75.68
3654;BME280;70277;54.302;10.064;2023-11-22T01:23:47;102647.56;;;2.88;75.76
3654;BME280;70277;54.302;10.064;2023-11-22T01:26:14;102632.44;;;2.79;75.29
3654;BME280;70277;54.302;10.064;2023-11-22T01:28:41;102639.94;;;2.76;75.53
3654;BME280;70277;54.302;10.064;2023-11-22T01:31:11;102651.00;;;2.81;75.57
3654;BME280;70277;54.302;10.064;2023-11-22T01:33:39;102657.88;;;2.83;75.50
3654;BME280;70277;54.302;10.064;2023-11-22T01:36:06;102671.00;;;2.77;75.69
3654;BME280;70277;54.302;10.064;2023-11-22T01:38:32;102664.72;;;2.68;75.82
3654;BME280;70277;54.302;10.064;2023-11-22T01:40:59;102654.53;;;2.54;76.38
3654;BME280;70277;54.302;10.064;2023-11-22T01:43:27;102651.97;;;2.62;76.36
3654;BME280;70277;54.302;10.064;2023-11-22T01:45:55;102655.03;;;2.67;76.19
3654;BME280;70277;54.302;10.064;2023-11-22T01:48:22;102644.81;;;2.80;75.45
3654;BME280;70277;54.302;10.064;2023-11-22T01:50:49;102653.13;;;2.77;76.05
3654;BME280;70277;54.302;10.064;2023-11-22T01:53:16;102650.44;;;2.77;75.95
3654;BME280;70277;54.302;10.064;2023-11-22T01:55:44;102652.97;;;2.61;75.76
3654;BME280;70277;54.302;10.064;2023-11-22T01:58:11;102645.25;;;2.58;76.47
3654;BME280;70277;54.302;10.064;2023-11-22T02:00:45;102649.41;;;2.60;75.75
3654;BME280;70277;54.302;10.064;2023-11-22T02:03:12;102669.47;;;2.74;75.57
3654;BME280;70277;54.302;10.064;2023-11-22T02:05:42;102686.59;;;2.54;76.83
3654;BME280;70277;54.302;10.064;2023-11-22T02:08:09;102676.78;;;2.72;77.07
3654;BME280;70277;54.302;10.064;2023-11-22T02:10:36;102686.31;;;2.84;77.26
3654;BME280;70277;54.302;10.064;2023-11-22T02:13:04;102689.34;;;2.89;76.62
3654;BME280;70277;54.302;10.064;2023-11-22T02:15:32;102690.56;;;2.77;77.62
3654;BME280;70277;54.302;10.064;2023-11-22T02:17:58;102700.53;;;2.85;77.62
3654;BME280;70277;54.302;10.064;2023-11-22T02:20:36;102707.59;;;2.48;77.58
3654;BME280;70277;54.302;10.064;2023-11-22T02:23:08;102713.66;;;2.78;77.34
3654;BME280;70277;54.302;10.064;2023-11-22T02:25:38;102706.09;;;2.91;76.90
3654;BME280;70277;54.302;10.064;2023-11-22T02:28:05;102704.78;;;2.95;76.25
3654;BME280;70277;54.302;10.064;2023-11-22T02:30:31;102690.88;;;2.92;75.91
3654;BME280;70277;54.302;10.064;2023-11-22T02:32:58;102700.53;;;3.03;76.11
3654;BME280;70277;54.302;10.064;2023-11-22T02:35:24;102697.34;;;2.99;75.92
3654;BME280;70277;54.302;10.064;2023-11-22T02:37:53;102697.34;;;2.99;75.81
3654;BME280;70277;54.302;10.064;2023-11-22T02:40:21;102696.56;;;3.07;75.43
3654;BME280;70277;54.302;10.064;2023-11-22T02:42:49;102696.88;;;3.04;75.35
3654;BME280;70277;54.302;10.064;2023-11-22T02:45:16;102697.56;;;3.06;75.40
3654;BME280;70277;54.302;10.064;2023-11-22T02:47:44;102695.03;;;3.22;74.69
3654;BME280;70277;54.302;10.064;2023-11-22T02:50:13;102708.81;;;3.27;74.13
3654;BME280;70277;54.302;10.064;2023-11-22T02:52:40;102705.59;;;3.06;74.84
3654;BME280;70277;54.302;10.064;2023-11-22T02:55:08;102706.44;;;3.06;76.43
3654;BME280;70277;54.302;10.064;2023-11-22T02:57:38;102701.91;;;3.07;76.28
3654;BME280;70277;54.302;10.064;2023-11-22T03:00:11;102706.00;;;3.11;75.97
3654;BME280;70277;54.302;10.064;2023-11-22T03:02:41;102710.84;;;2.97;76.68
3654;BME280;70277;54.302;10.064;2023-11-22T03:05:08;102716.19;;;2.97;76.79
3654;BME280;70277;54.302;10.064;2023-11-22T03:07:37;102721.53;;;2.97;76.83
3654;BME280;70277;54.302;10.064;2023-11-22T03:10:04;102727.06;;;2.96;77.58
3654;BME280;70277;54.302;10.064;2023-11-22T03:12:31;102733.09;;;3.16;77.34
3654;BME280;70277;54.302;10.064;2023-11-22T03:14:57;102726.53;;;3.28;76.62
3654;BME280;70277;54.302;10.064;2023-11-22T03:17:27;102729.75;;;3.14;77.68
3654;BME280;70277;54.302;10.064;2023-11-22T03:19:57;102737.19;;;3.20;77.19
3654;BME280;70277;54.302;10.064;2023-11-22T03:22:24;102731.16;;;3.36;77.37
3654;BME280;70277;54.302;10.064;2023-11-22T03:24:52;102736.34;;;3.37;76.87
3654;BME280;70277;54.302;10.064;2023-11-22T03:27:19;102729.81;;;3.58;76.64
3654;BME280;70277;54.302;10.064;2023-11-22T03:29:47;102751.84;;;3.70;76.09
3654;BME280;70277;54.302;10.064;2023-11-22T03:32:14;102737.41;;;3.62;75.89
3654;BME280;70277;54.302;10.064;2023-11-22T03:34:40;102736.03;;;3.23;77.40
3654;BME280;70277;54.302;10.064;2023-11-22T03:37:07;102744.81;;;3.15;78.13
3654;BME280;70277;54.302;10.064;2023-11-22T03:39:34;102745.00;;;3.31;77.13
3654;BME280;70277;54.302;10.064;2023-11-22T03:42:00;102740.19;;;3.35;76.83
3654;BME280;70277;54.302;10.064;2023-11-22T03:44:27;102745.13;;;3.30;76.61
3654;BME280;70277;54.302;10.064;2023-11-22T03:46:54;102754.69;;;3.32;76.58
3654;BME280;70277;54.302;10.064;2023-11-22T03:49:20;102754.69;;;3.32;76.32
3654;BME280;70277;54.302;10.064;2023-11-22T03:51:47;102767.25;;;3.04;76.27
3654;BME280;70277;54.302;10.064;2023-11-22T03:54:14;102756.00;;;3.01;77.54
3654;BME280;70277;54.302;10.064;2023-11-22T03:56:40;102762.94;;;3.21;77.86
3654;BME280;70277;54.302;10.064;2023-11-22T03:59:07;102751.09;;;3.24;76.90
3654;BME280;70277;54.302;10.064;2023-11-22T04:01:33;102746.97;;;3.29;77.00
3654;BME280;70277;54.302;10.064;2023-11-22T04:04:00;102738.31;;;3.17;76.75
3654;BME280;70277;54.302;10.064;2023-11-22T04:06:27;102728.91;;;3.13;77.40
3654;BME280;70277;54.302;10.064;2023-11-22T04:08:54;102725.16;;;3.24;77.17
3654;BME280;70277;54.302;10.064;2023-11-22T04:11:20;102726.84;;;3.25;76.30
3654;BME280;70277;54.302;10.064;2023-11-22T04:13:47;102723.53;;;3.13;76.43
3654;BME280;70277;54.302;10.064;2023-11-22T04:16:14;102717.44;;;3.21;76.21
3654;BME280;70277;54.302;10.064;2023-11-22T04:18:41;102717.34;;;3.13;75.67
3654;BME280;70277;54.302;10.064;2023-11-22T04:21:08;102721.88;;;2.67;77.17
3654;BME280;70277;54.302;10.064;2023-11-22T04:23:35;102738.28;;;2.72;76.89
3654;BME280;70277;54.302;10.064;2023-11-22T04:26:02;102727.56;;;2.82;76.60
3654;BME280;70277;54.302;10.064;2023-11-22T04:28:29;102729.69;;;2.78;76.65
3654;BME280;70277;54.302;10.064;2023-11-22T04:30:56;102725.03;;;2.80;77.14
3654;BME280;70277;54.302;10.064;2023-11-22T04:33:24;102733.16;;;2.88;76.83
3654;BME280;70277;54.302;10.064;2023-11-22T04:35:50;102726.81;;;2.62;77.24
3654;BME280;70277;54.302;10.064;2023-11-22T04:38:17;102722.25;;;2.72;77.30
3654;BME280;70277;54.302;10.064;2023-11-22T04:40:44;102718.28;;;2.76;77.26
3654;BME280;70277;54.302;10.064;2023-11-22T04:43:11;102730.78;;;2.85;76.75
3654;BME280;70277;54.302;10.064;2023-11-22T04:45:38;102721.16;;;2.92;76.45
3654;BME280;70277;54.302;10.064;2023-11-22T04:48:05;102714.22;;;2.72;76.42
3654;BME280;70277;54.302;10.064;2023-11-22T04:50:36;102722.25;;;2.72;76.08
3654;BME280;70277;54.302;10.064;2023-11-22T04:53:02;102720.16;;;2.66;76.18
3654;BME280;70277;54.302;10.064;2023-11-22T04:55:29;102736.50;;;2.63;75.96
3654;BME280;70277;54.302;10.064;2023-11-22T04:57:56;102739.69;;;2.76;75.66
3654;BME280;70277;54.302;10.064;2023-11-22T05:00:22;102730.84;;;2.66;75.88
3654;BME280;70277;54.302;10.064;2023-11-22T05:02:51;102733.22;;;2.69;75.66
3654;BME280;70277;54.302;10.064;2023-11-22T05:05:18;102727.50;;;2.64;75.20
3654;BME280;70277;54.302;10.064;2023-11-22T05:07:45;102742.53;;;2.65;76.26
3654;BME280;70277;54.302;10.064;2023-11-22T05:10:11;102746.69;;;2.49;76.60
3654;BME280;70277;54.302;10.064;2023-11-22T05:12:38;102752.84;;;2.60;75.78
3654;BME280;70277;54.302;10.064;2023-11-22T05:15:06;102753.25;;;2.65;75.89
3654;BME280;70277;54.302;10.064;2023-11-22T05:17:32;102757.88;;;2.63;75.26
3654;BME280;70277;54.302;10.064;2023-11-22T05:19:59;102776.22;;;2.58;75.17
3654;BME280;70277;54.302;10.064;2023-11-22T05:22:26;102771.28;;;2.53;75.44
3654;BME280;70277;54.302;10.064;2023-11-22T05:24:52;102776.50;;;2.55;75.27
3654;BME280;70277;54.302;10.064;2023-11-22T05:27:19;102789.72;;;2.56;75.66
3654;BME280;70277;54.302;10.064;2023-11-22T05:29:45;102767.50;;;2.56;75.68
3654;BME280;70277;54.302;10.064;2023-11-22T05:32:20;102762.44;;;2.53;75.55
3654;BME280;70277;54.302;10.064;2023-11-22T05:34:47;102768.66;;;2.43;75.47
3654;BME280;70277;54.302;10.064;2023-11-22T05:37:14;102767.78;;;2.53;75.58
3654;BME280;70277;54.302;10.064;2023-11-22T05:39:40;102749.22;;;2.51;75.57
3654;BME280;70277;54.302;10.064;2023-11-22T05:42:07;102758.22;;;2.50;76.01
3654;BME280;70277;54.302;10.064;2023-11-22T05:44:33;102750.06;;;2.52;75.54
3654;BME280;70277;54.302;10.064;2023-11-22T05:47:00;102756.63;;;2.57;75.96
3654;BME280;70277;54.302;10.064;2023-11-22T05:49:26;102753.09;;;2.66;75.86
3654;BME280;70277;54.302;10.064;2023-11-22T05:51:53;102742.97;;;2.60;75.79
3654;BME280;70277;54.302;10.064;2023-11-22T05:54:19;102732.75;;;2.56;76.31
3654;BME280;70277;54.302;10.064;2023-11-22T05:56:46;102720.91;;;2.58;75.88
3654;BME280;70277;54.302;10.064;2023-11-22T05:59:12;102726.41;;;2.57;76.26
3654;BME280;70277;54.302;10.064;2023-11-22T06:01:39;102724.03;;;2.54;76.01
3654;BME280;70277;54.302;10.064;2023-11-22T06:04:06;102727.81;;;2.61;75.69
3654;BME280;70277;54.302;10.064;2023-11-22T06:06:36;102722.75;;;2.58;75.74
3654;BME280;70277;54.302;10.064;2023-11-22T06:09:03;102717.53;;;2.56;75.56
3654;BME280;70277;54.302;10.064;2023-11-22T06:11:31;102721.88;;;2.57;75.87
3654;BME280;70277;54.302;10.064;2023-11-22T06:13:58;102727.41;;;2.56;75.67
3654;BME280;70277;54.302;10.064;2023-11-22T06:16:24;102708.66;;;2.28;76.16
3654;BME280;70277;54.302;10.064;2023-11-22T06:18:51;102696.72;;;2.22;76.14
3654;BME280;70277;54.302;10.064;2023-11-22T06:21:18;102711.03;;;2.31;76.28
3654;BME280;70277;54.302;10.064;2023-11-22T06:23:45;102705.84;;;2.30;76.53
3654;BME280;70277;54.302;10.064;2023-11-22T06:26:12;102702.91;;;2.23;76.50
3654;BME280;70277;54.302;10.064;2023-11-22T06:28:38;102710.16;;;2.40;76.26
3654;BME280;70277;54.302;10.064;2023-11-22T06:31:05;102702.81;;;2.42;76.15
3654;BME280;70277;54.302;10.064;2023-11-22T06:33:31;102712.84;;;2.40;76.41
3654;BME280;70277;54.302;10.064;2023-11-22T06:35:58;102709.03;;;2.43;76.19
3654;BME280;70277;54.302;10.064;2023-11-22T06:38:24;102707.38;;;2.32;76.30
3654;BME280;70277;54.302;10.064;2023-11-22T06:40:51;102711.63;;;2.25;76.20
3654;BME280;70277;54.302;10.064;2023-11-22T06:43:17;102697.41;;;2.34;76.28
3654;BME280;70277;54.302;10.064;2023-11-22T06:45:44;102700.19;;;2.33;76.76
3654;BME280;70277;54.302;10.064;2023-11-22T06:48:11;102689.56;;;2.50;76.45
3654;BME280;70277;54.302;10.064;2023-11-22T06:50:38;102693.34;;;2.58;76.84
3654;BME280;70277;54.302;10.064;2023-11-22T06:53:05;102695.91;;;2.49;77.26
3654;BME280;70277;54.302;10.064;2023-11-22T06:55:32;102707.50;;;2.68;77.00
3654;BME280;70277;54.302;10.064;2023-11-22T06:57:59;102712.00;;;2.67;77.19
3654;BME280;70277;54.302;10.064;2023-11-22T07:00:26;102726.81;;;2.62;78.77
3654;BME280;70277;54.302;10.064;2023-11-22T07:02:53;102724.59;;;2.85;77.42
3654;BME280;70277;54.302;10.064;2023-11-22T07:05:20;102743.41;;;2.93;77.09
3654;BME280;70277;54.302;10.064;2023-11-22T07:07:47;102750.56;;;2.92;76.50
3654;BME280;70277;54.302;10.064;2023-11-22T07:10:14;102750.25;;;2.95;76.33
3654;BME280;70277;54.302;10.064;2023-11-22T07:12:41;102739.44;;;2.97;75.93
3654;BME280;70277;54.302;10.064;2023-11-22T07:15:10;102751.13;;;2.96;76.22
3654;BME280;70277;54.302;10.064;2023-11-22T07:17:36;102741.28;;;2.96;75.82
3654;BME280;70277;54.302;10.064;2023-11-22T07:20:03;102740.88;;;2.91;76.43
3654;BME280;70277;54.302;10.064;2023-11-22T07:22:35;102754.03;;;3.03;75.80
3654;BME280;70277;54.302;10.064;2023-11-22T07:25:02;102768.13;;;3.05;76.75
3654;BME280;70277;54.302;10.064;2023-11-22T07:27:29;102775.00;;;2.80;78.20
3654;BME280;70277;54.302;10.064;2023-11-22T07:29:55;102781.97;;;3.18;77.23
3654;BME280;70277;54.302;10.064;2023-11-22T07:32:22;102781.84;;;3.37;77.03
3654;BME280;70277;54.302;10.064;2023-11-22T07:34:49;102786.06;;;3.58;76.75
3654;BME280;70277;54.302;10.064;2023-11-22T07:37:15;102775.44;;;3.66;75.59
3654;BME280;70277;54.302;10.064;2023-11-22T07:39:42;102787.38;;;3.72;75.18
3654;BME280;70277;54.302;10.064;2023-11-22T07:42:10;102779.31;;;3.72;74.88
3654;BME280;70277;54.302;10.064;2023-11-22T07:44:37;102778.78;;;3.86;74.90
3654;BME280;70277;54.302;10.064;2023-11-22T07:47:05;102780.00;;;3.92;74.90
3654;BME280;70277;54.302;10.064;2023-11-22T07:49:38;102782.22;;;3.78;75.33
3654;BME280;70277;54.302;10.064;2023-11-22T07:52:05;102785.59;;;3.80;74.90
3654;BME280;70277;54.302;10.064;2023-11-22T07:54:32;102771.91;;;3.83;75.18
3654;BME280;70277;54.302;10.064;2023-11-22T07:56:59;102764.66;;;3.76;75.74
3654;BME280;70277;54.302;10.064;2023-11-22T07:59:26;102744.22;;;3.75;75.82
3654;BME280;70277;54.302;10.064;2023-11-22T08:01:52;102750.84;;;3.88;75.78
3654;BME280;70277;54.302;10.064;2023-11-22T08:04:20;102761.47;;;3.98;75.29
3654;BME280;70277;54.302;10.064;2023-11-22T08:06:46;102753.47;;;3.80;75.68
3654;BME280;70277;54.302;10.064;2023-11-22T08:09:14;102741.97;;;3.88;76.18
3654;BME280;70277;54.302;10.064;2023-11-22T08:11:42;102736.66;;;3.96;76.36
3654;BME280;70277;54.302;10.064;2023-11-22T08:14:09;102741.88;;;3.98;76.24
3654;BME280;70277;54.302;10.064;2023-11-22T08:16:35;102742.03;;;4.22;75.47
3654;BME280;70277;54.302;10.064;2023-11-22T08:19:05;102756.91;;;4.17;74.64
3654;BME280;70277;54.302;10.064;2023-11-22T08:21:34;102759.06;;;4.13;75.25
3654;BME280;70277;54.302;10.064;2023-11-22T08:24:01;102750.03;;;3.70;77.45
3654;BME280;70277;54.302;10.064;2023-11-22T08:26:29;102735.75;;;3.44;78.03
3654;BME280;70277;54.302;10.064;2023-11-22T08:28:55;102730.41;;;3.44;78.47
3654;BME280;70277;54.302;10.064;2023-11-22T08:31:22;102717.53;;;3.29;78.73
3654;BME280;70277;54.302;10.064;2023-11-22T08:33:48;102720.72;;;3.69;78.31
3654;BME280;70277;54.302;10.064;2023-11-22T08:36:15;102722.03;;;3.64;77.98
3654;BME280;70277;54.302;10.064;2023-11-22T08:38:41;102740.72;;;3.38;78.57
3654;BME280;70277;54.302;10.064;2023-11-22T08:41:10;102739.03;;;3.55;78.64
3654;BME280;70277;54.302;10.064;2023-11-22T08:43:40;102745.66;;;3.15;78.74
3654;BME280;70277;54.302;10.064;2023-11-22T08:46:07;102754.03;;;3.03;79.35
3654;BME280;70277;54.302;10.064;2023-11-22T08:48:41;102731.25;;;2.99;79.28
3654;BME280;70277;54.302;10.064;2023-11-22T08:51:09;102743.28;;;3.12;79.68
3654;BME280;70277;54.302;10.064;2023-11-22T08:53:36;102750.00;;;3.16;79.31
3654;BME280;70277;54.302;10.064;2023-11-22T08:56:03;102726.53;;;3.28;79.25
3654;BME280;70277;54.302;10.064;2023-11-22T08:58:32;102733.03;;;3.08;79.81
3654;BME280;70277;54.302;10.064;2023-11-22T09:01:00;102739.56;;;3.23;79.89
3654;BME280;70277;54.302;10.064;2023-11-22T09:03:26;102737.25;;;3.28;78.97
3654;BME280;70277;54.302;10.064;2023-11-22T09:05:54;102739.16;;;3.36;79.43
3654;BME280;70277;54.302;10.064;2023-11-22T09:08:21;102744.31;;;3.29;79.09
3654;BME280;70277;54.302;10.064;2023-11-22T09:10:53;102751.94;;;3.42;78.86
3654;BME280;70277;54.302;10.064;2023-11-22T09:13:20;102758.69;;;3.64;78.79
3654;BME280;70277;54.302;10.064;2023-11-22T09:15:48;102777.50;;;3.72;78.14
3654;BME280;70277;54.302;10.064;2023-11-22T09:18:15;102770.22;;;3.82;77.18
3654;BME280;70277;54.302;10.064;2023-11-22T09:20:42;102770.38;;;3.63;77.37
3654;BME280;70277;54.302;10.064;2023-11-22T09:23:11;102760.97;;;3.59;77.49
3654;BME280;70277;54.302;10.064;2023-11-22T09:25:40;102772.91;;;3.82;77.74
3654;BME280;70277;54.302;10.064;2023-11-22T09:28:07;102778.25;;;3.82;77.01
3654;BME280;70277;54.302;10.064;2023-11-22T09:30:35;102777.25;;;3.83;78.01
3654;BME280;70277;54.302;10.064;2023-11-22T09:33:08;102781.69;;;3.39;78.28
3654;BME280;70277;54.302;10.064;2023-11-22T09:35:36;102777.56;;;3.27;78.31
3654;BME280;70277;54.302;10.064;2023-11-22T09:38:04;102779.84;;;3.75;77.97
3654;BME280;70277;54.302;10.064;2023-11-22T09:40:36;102766.47;;;3.75;77.99
3654;BME280;70277;54.302;10.064;2023-11-22T09:43:03;102757.16;;;3.79;77.08
3654;BME280;70277;54.302;10.064;2023-11-22T09:45:30;102763.97;;;3.74;77.31
3654;BME280;70277;54.302;10.064;2023-11-22T09:47:58;102760.97;;;3.59;77.51
3654;BME280;70277;54.302;10.064;2023-11-22T09:50:47;102770.59;;;3.52;77.92
3654;BME280;70277;54.302;10.064;2023-11-22T09:56:21;102735.03;;;3.59;78.52
3654;BME280;70277;54.302;10.064;2023-11-22T09:58:51;102736.06;;;3.84;77.45
3654;BME280;70277;54.302;10.064;2023-11-22T10:01:18;102731.03;;;3.81;77.33
3654;BME280;70277;54.302;10.064;2023-11-22T10:03:44;102724.47;;;3.76;78.40
3654;BME280;70277;54.302;10.064;2023-11-22T10:06:11;102723.63;;;3.75;77.90
3654;BME280;70277;54.302;10.064;2023-11-22T10:08:38;102719.59;;;3.71;77.81
3654;BME280;70277;54.302;10.064;2023-11-22T10:11:05;102731.66;;;3.57;77.26
3654;BME280;70277;54.302;10.064;2023-11-22T10:13:31;102708.72;;;4.25;77.06
3654;BME280;70277;54.302;10.064;2023-11-22T10:16:10;102684.63;;;3.99;77.17
3654;BME280;70277;54.302;10.064;2023-11-22T10:18:41;102679.44;;;3.97;77.00
3654;BME280;70277;54.302;10.064;2023-11-22T10:21:25;102664.97;;;3.90;77.65
3654;BME280;70277;54.302;10.064;2023-11-22T10:24:04;102667.66;;;3.90;77.12
3654;BME280;70277;54.302;10.064;2023-11-22T10:26:31;102650.41;;;3.67;77.15
3654;BME280;70277;54.302;10.064;2023-11-22T10:28:58;102658.78;;;3.90;76.69
3654;BME280;70277;54.302;10.064;2023-11-22T10:31:26;102638.03;;;3.92;76.75
3654;BME280;70277;54.302;10.064;2023-11-22T10:33:53;102633.53;;;3.92;75.79
3654;BME280;70277;54.302;10.064;2023-11-22T10:36:22;102625.97;;;3.87;76.70
3654;BME280;70277;54.302;10.064;2023-11-22T10:38:49;102629.00;;;3.93;76.43
3654;BME280;70277;54.302;10.064;2023-11-22T10:41:20;102625.72;;;4.07;75.11
3654;BME280;70277;54.302;10.064;2023-11-22T10:43:47;102619.19;;;3.75;75.75
3654;BME280;70277;54.302;10.064;2023-11-22T10:46:15;102613.47;;;3.70;75.32
3654;BME280;70277;54.302;10.064;2023-11-22T10:48:43;102615.00;;;4.07;75.10
3654;BME280;70277;54.302;10.064;2023-11-22T10:51:12;102620.44;;;3.89;74.81
3654;BME280;70277;54.302;10.064;2023-11-22T10:53:48;102604.66;;;4.12;74.49
3654;BME280;70277;54.302;10.064;2023-11-22T10:56:16;102589.88;;;4.08;74.08
3654;BME280;70277;54.302;10.064;2023-11-22T10:58:49;102593.38;;;4.00;73.29
3654;BME280;70277;54.302;10.064;2023-11-22T11:01:17;102570.38;;;3.90;73.93
3654;BME280;70277;54.302;10.064;2023-11-22T11:06:35;102534.25;;;3.94;72.72
3654;BME280;70277;54.302;10.064;2023-11-22T11:09:04;102525.53;;;3.92;73.22
3654;BME280;70277;54.302;10.064;2023-11-22T11:11:33;102516.59;;;4.17;73.30
3654;BME280;70277;54.302;10.064;2023-11-22T11:14:02;102519.63;;;4.30;72.95
3654;BME280;70277;54.302;10.064;2023-11-22T11:16:30;102500.56;;;4.42;71.44
3654;BME280;70277;54.302;10.064;2023-11-22T11:19:01;102498.34;;;4.21;70.74
3654;BME280;70277;54.302;10.064;2023-11-22T11:21:28;102494.88;;;4.45;71.21
3654;BME280;70277;54.302;10.064;2023-11-22T11:23:55;102489.66;;;4.27;70.52
3654;BME280;70277;54.302;10.064;2023-11-22T11:26:31;102495.47;;;4.06;71.26
3654;BME280;70277;54.302;10.064;2023-11-22T11:28:58;102452.94;;;4.19;70.16
3654;BME280;70277;54.302;10.064;2023-11-22T11:31:31;102455.00;;;4.50;68.96
3654;BME280;70277;54.302;10.064;2023-11-22T11:33:58;102455.69;;;4.44;69.39
3654;BME280;70277;54.302;10.064;2023-11-22T11:36:30;102452.50;;;4.65;68.51
3654;BME280;70277;54.302;10.064;2023-11-22T11:39:12;102435.91;;;4.45;69.74
3654;BME280;70277;54.302;10.064;2023-11-22T11:41:42;102441.56;;;4.25;69.57
3654;BME280;70277;54.302;10.064;2023-11-22T11:44:09;102428.00;;;4.27;69.17
3654;BME280;70277;54.302;10.064;2023-11-22T11:46:36;102433.22;;;4.45;68.60
3654;BME280;70277;54.302;10.064;2023-11-22T11:49:06;102463.53;;;4.45;68.87
3654;BME280;70277;54.302;10.064;2023-11-22T11:51:36;102471.56;;;4.21;68.66
3654;BME280;70277;54.302;10.064;2023-11-22T11:54:04;102490.19;;;4.39;68.35
3654;BME280;70277;54.302;10.064;2023-11-22T11:56:33;102496.56;;;4.54;68.46
3654;BME280;70277;54.302;10.064;2023-11-22T11:59:01;102470.25;;;4.66;68.06
3654;BME280;70277;54.302;10.064;2023-11-22T12:01:28;102488.84;;;4.51;68.05
3654;BME280;70277;54.302;10.064;2023-11-22T12:04:01;102493.22;;;5.01;67.80
3654;BME280;70277;54.302;10.064;2023-11-22T12:06:29;102484.81;;;4.88;67.09
3654;BME280;70277;54.302;10.064;2023-11-22T12:08:57;102487.53;;;4.71;68.22
3654;BME280;70277;54.302;10.064;2023-11-22T12:11:24;102477.28;;;4.67;67.50
3654;BME280;70277;54.302;10.064;2023-11-22T12:13:51;102486.66;;;4.79;67.38
3654;BME280;70277;54.302;10.064;2023-11-22T12:16:19;102493.53;;;4.57;67.33
3654;BME280;70277;54.302;10.064;2023-11-22T12:18:49;102478.13;;;4.67;67.34
3654;BME280;70277;54.302;10.064;2023-11-22T12:21:16;102472.78;;;4.92;67.28
3654;BME280;70277;54.302;10.064;2023-11-22T12:23:45;102470.56;;;4.79;67.10
3654;BME280;70277;54.302;10.064;2023-11-22T12:26:15;102467.72;;;4.72;67.91
3654;BME280;70277;54.302;10.064;2023-11-22T12:28:46;102453.31;;;4.82;67.59
3654;BME280;70277;54.302;10.064;2023-11-22T12:31:28;102455.69;;;4.76;67.19
3654;BME280;70277;54.302;10.064;2023-11-22T12:33:56;102442.25;;;4.85;67.23
3654;BME280;70277;54.302;10.064;2023-11-22T12:36:23;102444.22;;;5.07;67.40
3654;BME280;70277;54.302;10.064;2023-11-22T12:38:49;102434.88;;;4.95;67.46
3654;BME280;70277;54.302;10.064;2023-11-22T12:41:16;102441.59;;;4.83;66.83
3654;BME280;70277;54.302;10.064;2023-11-22T12:43:44;102438.56;;;4.86;67.16
3654;BME280;70277;54.302;10.064;2023-11-22T12:46:27;102435.06;;;4.85;66.69
3654;BME280;70277;54.302;10.064;2023-11-22T12:49:05;102431.19;;;4.39;66.72
3654;BME280;70277;54.302;10.064;2023-11-22T12:51:32;102429.84;;;4.43;66.43
3654;BME280;70277;54.302;10.064;2023-11-22T12:53:58;102432.88;;;4.40;66.24
3654;BME280;70277;54.302;10.064;2023-11-22T12:56:25;102427.16;;;4.34;67.24
3654;BME280;70277;54.302;10.064;2023-11-22T12:58:54;102433.88;;;4.55;66.85
3654;BME280;70277;54.302;10.064;2023-11-22T13:01:21;102434.56;;;4.65;66.81
3654;BME280;70277;54.302;10.064;2023-11-22T13:03:47;102424.81;;;4.64;67.09
3654;BME280;70277;54.302;10.064;2023-11-22T13:06:16;102413.25;;;4.64;66.38
3654;BME280;70277;54.302;10.064;2023-11-22T13:08:44;102410.56;;;4.72;66.99